Time;durP1;ratioP1;P1;durP2;ratioP2;P2;SDS_P1;SDS_P2;PMS_P1;PMS_P2;Temp;Humidity;BMP_temperature;BMP_pressure;BME280_temperature;BME280_humidity;BME280_pressure;Samples;Min_cycle;Max_cycle;Signal;HPM_P1;HPM_P2
2021/05/20 00:00:52;;;;;;;1.00;0.70;;;9.70;99.90;;;;;;5035185;28;20950;-78
2021/05/20 00:03:18;;;;;;;1.17;0.60;;;9.70;99.90;;;;;;5034971;28;20451;-78
2021/05/20 00:05:44;;;;;;;1.47;0.60;;;9.60;99.90;;;;;;5035299;28;20505;-78
2021/05/20 00:08:11;;;;;;;0.77;0.60;;;9.50;99.90;;;;;;5035321;28;20500;-78
2021/05/20 00:10:37;;;;;;;0.50;0.50;;;9.50;99.90;;;;;;5035235;28;20466;-78
2021/05/20 00:13:04;;;;;;;0.60;0.60;;;9.50;99.90;;;;;;5035190;28;20447;-78
2021/05/20 00:15:30;;;;;;;1.27;0.70;;;9.40;99.90;;;;;;5035196;28;20443;-78
2021/05/20 00:17:56;;;;;;;2.63;0.70;;;9.40;99.90;;;;;;5035187;28;20807;-78
2021/05/20 00:20:22;;;;;;;0.90;0.70;;;9.40;99.90;;;;;;5034722;28;20974;-78
2021/05/20 00:22:48;;;;;;;0.97;0.83;;;9.40;99.90;;;;;;5035026;28;20457;-78
2021/05/20 00:25:15;;;;;;;0.63;0.60;;;9.40;99.90;;;;;;5034934;28;20486;-78
2021/05/20 00:27:42;;;;;;;1.60;0.70;;;9.40;99.90;;;;;;5034915;28;20448;-78
2021/05/20 00:30:10;;;;;;;1.10;0.70;;;9.40;99.90;;;;;;5034502;28;20485;-78
2021/05/20 00:32:36;;;;;;;1.20;0.60;;;9.30;99.90;;;;;;5034797;28;20505;-78
2021/05/20 00:35:03;;;;;;;1.97;0.90;;;9.30;99.90;;;;;;5034768;28;20480;-78
2021/05/20 00:37:29;;;;;;;0.63;0.63;;;9.30;99.90;;;;;;5034752;28;20443;-78
2021/05/20 00:39:56;;;;;;;1.00;0.70;;;9.20;99.90;;;;;;5034600;28;20589;-78
2021/05/20 00:42:23;;;;;;;0.60;0.60;;;9.20;99.90;;;;;;5034401;28;20529;-78
2021/05/20 00:44:50;;;;;;;0.90;0.70;;;9.20;99.90;;;;;;5034519;28;20467;-77
2021/05/20 00:47:18;;;;;;;0.90;0.70;;;9.20;99.90;;;;;;5034463;28;20466;-78
2021/05/20 00:49:44;;;;;;;2.13;0.90;;;9.10;99.90;;;;;;5034146;28;21013;-78
2021/05/20 00:52:11;;;;;;;0.80;0.80;;;9.20;99.90;;;;;;5034191;28;21064;-78
2021/05/20 00:54:37;;;;;;;0.90;0.90;;;9.20;99.90;;;;;;5034390;28;20445;-78
2021/05/20 00:57:04;;;;;;;0.80;0.70;;;9.10;99.90;;;;;;5034337;28;20450;-78
2021/05/20 00:59:31;;;;;;;0.80;0.80;;;9.10;99.90;;;;;;5033978;28;21020;-78
2021/05/20 01:01:59;;;;;;;0.80;0.80;;;9.10;99.90;;;;;;5034381;28;20504;-78
2021/05/20 01:04:26;;;;;;;1.30;0.87;;;9.10;99.90;;;;;;5034168;28;20826;-77
2021/05/20 01:06:52;;;;;;;0.80;0.70;;;9.00;99.90;;;;;;5034218;28;20445;-78
2021/05/20 01:09:19;;;;;;;1.07;0.70;;;9.00;99.90;;;;;;5033811;28;20997;-78
2021/05/20 01:11:45;;;;;;;1.20;0.80;;;9.00;99.90;;;;;;5034094;28;20451;-78
2021/05/20 01:14:12;;;;;;;1.53;0.80;;;8.90;99.90;;;;;;5033025;28;20447;-78
2021/05/20 01:16:39;;;;;;;0.70;0.63;;;8.90;99.90;;;;;;5033720;28;20538;-77
2021/05/20 01:19:06;;;;;;;1.07;0.60;;;8.90;99.90;;;;;;5033897;28;20463;-78
2021/05/20 01:21:34;;;;;;;6.00;0.80;;;8.80;99.90;;;;;;5033942;28;20442;-77
2021/05/20 01:24:01;;;;;;;1.90;0.70;;;8.80;99.90;;;;;;5033848;28;20461;-78
2021/05/20 01:26:29;;;;;;;1.30;0.60;;;8.80;99.90;;;;;;5033832;28;20497;-78
2021/05/20 01:28:55;;;;;;;0.70;0.60;;;8.70;99.90;;;;;;5033449;28;21002;-78
2021/05/20 01:31:21;;;;;;;1.27;0.70;;;8.70;99.90;;;;;;5033815;28;20454;-78
2021/05/20 01:33:47;;;;;;;4.00;0.80;;;8.60;99.90;;;;;;5033516;28;20474;-77
2021/05/20 01:36:13;;;;;;;0.90;0.70;;;8.60;99.90;;;;;;5033510;28;20439;-78
2021/05/20 01:38:43;;;;;;;0.80;0.80;;;8.60;99.90;;;;;;5033576;28;20459;-78
2021/05/20 01:41:11;;;;;;;1.43;0.80;;;8.50;99.90;;;;;;5033654;28;20447;-78
2021/05/20 01:43:38;;;;;;;0.63;0.63;;;8.50;99.90;;;;;;5033209;28;20497;-78
2021/05/20 01:46:06;;;;;;;0.80;0.80;;;8.50;99.90;;;;;;5033537;28;20490;-77
2021/05/20 01:48:35;;;;;;;0.90;0.80;;;8.50;99.90;;;;;;5033478;28;20454;-78
2021/05/20 01:51:03;;;;;;;0.93;0.83;;;8.50;99.90;;;;;;5033529;28;20473;-78
2021/05/20 01:53:29;;;;;;;0.70;0.70;;;8.40;99.90;;;;;;5033477;28;20481;-77
2021/05/20 01:55:56;;;;;;;0.70;0.70;;;8.50;99.90;;;;;;5033432;28;20541;-77
2021/05/20 01:58:23;;;;;;;2.40;0.80;;;8.50;99.90;;;;;;5033406;28;20516;-77
2021/05/20 02:00:49;;;;;;;0.80;0.70;;;8.50;99.90;;;;;;5033343;28;20458;-77
2021/05/20 02:03:15;;;;;;;1.60;0.70;;;8.50;99.90;;;;;;5033307;28;20455;-77
2021/05/20 02:05:42;;;;;;;1.23;0.70;;;8.50;99.90;;;;;;5032946;28;20939;-77
2021/05/20 02:08:08;;;;;;;1.00;0.80;;;8.60;99.90;;;;;;5033287;28;20504;-77
2021/05/20 02:10:34;;;;;;;1.40;0.87;;;8.60;99.90;;;;;;5033188;28;20628;-77
2021/05/20 02:13:01;;;;;;;0.80;0.70;;;8.60;99.90;;;;;;5033288;28;20446;-77
2021/05/20 02:15:28;;;;;;;1.33;0.70;;;8.60;99.90;;;;;;5033240;28;20442;-77
2021/05/20 02:17:54;;;;;;;0.70;0.70;;;8.60;99.90;;;;;;5033198;28;20453;-77
2021/05/20 02:20:21;;;;;;;0.60;0.60;;;8.60;99.90;;;;;;5032838;28;20981;-77
2021/05/20 02:22:49;;;;;;;0.80;0.70;;;8.60;99.90;;;;;;5033149;28;20460;-77
2021/05/20 02:25:15;;;;;;;1.20;0.80;;;8.50;99.90;;;;;;5034686;28;20517;-77
2021/05/20 02:27:42;;;;;;;0.70;0.70;;;8.40;99.90;;;;;;5037150;28;20451;-77
2021/05/20 02:30:12;;;;;;;0.80;0.80;;;8.40;99.90;;;;;;5037025;28;20470;-77
2021/05/20 02:32:38;;;;;;;0.80;0.70;;;8.30;99.90;;;;;;5037106;28;20538;-78
2021/05/20 02:35:05;;;;;;;1.13;0.70;;;8.30;99.90;;;;;;5037047;28;20469;-77
2021/05/20 02:37:32;;;;;;;0.90;0.70;;;8.20;99.90;;;;;;5036994;28;20446;-78
2021/05/20 02:39:58;;;;;;;0.70;0.70;;;8.20;99.90;;;;;;5036656;28;20458;-77
2021/05/20 02:42:24;;;;;;;2.37;0.90;;;8.20;99.90;;;;;;5036684;28;20454;-77
2021/05/20 02:44:50;;;;;;;0.70;0.70;;;8.10;99.90;;;;;;5037090;28;20876;-78
2021/05/20 02:47:17;;;;;;;0.80;0.80;;;8.10;99.90;;;;;;5036852;28;20478;-78
2021/05/20 02:49:44;;;;;;;0.70;0.70;;;8.10;99.90;;;;;;5036749;28;20466;-77
2021/05/20 02:52:10;;;;;;;1.63;0.70;;;8.10;99.90;;;;;;5036727;28;20457;-77
2021/05/20 02:54:37;;;;;;;1.27;0.80;;;8.20;99.90;;;;;;5036708;28;20461;-78
2021/05/20 02:57:04;;;;;;;0.87;0.70;;;8.20;99.90;;;;;;5036620;28;20500;-77
2021/05/20 02:59:31;;;;;;;1.77;0.60;;;8.20;99.90;;;;;;5036227;28;20992;-77
2021/05/20 03:02:03;;;;;;;0.70;0.70;;;8.30;99.90;;;;;;5036513;28;20792;-78
2021/05/20 03:04:31;;;;;;;0.80;0.80;;;8.20;99.90;;;;;;5036178;28;20914;-79
2021/05/20 03:06:58;;;;;;;0.80;0.80;;;8.30;99.90;;;;;;5036419;28;20508;-80
2021/05/20 03:09:24;;;;;;;0.60;0.60;;;8.30;99.90;;;;;;5036345;28;20466;-80
2021/05/20 03:11:51;;;;;;;1.30;0.80;;;8.40;99.90;;;;;;5036151;28;20802;-79
2021/05/20 03:14:17;;;;;;;0.70;0.70;;;8.40;99.90;;;;;;5036050;28;20849;-79
2021/05/20 03:16:44;;;;;;;1.67;1.00;;;8.40;99.90;;;;;;5036964;28;20455;-78
2021/05/20 03:19:10;;;;;;;0.70;0.70;;;8.30;99.90;;;;;;5036225;28;20466;-77
2021/05/20 03:21:37;;;;;;;2.77;0.80;;;8.30;99.90;;;;;;5036199;28;20457;-77
2021/05/20 03:24:04;;;;;;;0.93;0.90;;;8.30;99.90;;;;;;5036117;28;20817;-77
2021/05/20 03:26:31;;;;;;;0.87;0.87;;;8.20;99.90;;;;;;5036012;28;20482;-77
2021/05/20 03:28:57;;;;;;;0.77;0.77;;;8.30;99.90;;;;;;5035659;28;21020;-77
2021/05/20 03:31:23;;;;;;;1.70;0.90;;;8.20;99.90;;;;;;5035677;28;20954;-78
2021/05/20 03:33:49;;;;;;;1.53;0.77;;;8.10;99.90;;;;;;5035697;28;20954;-77
2021/05/20 03:36:16;;;;;;;0.80;0.80;;;8.10;99.90;;;;;;5035755;28;20493;-77
2021/05/20 03:38:43;;;;;;;1.13;0.80;;;8.10;99.90;;;;;;5035774;28;20457;-77
2021/05/20 03:41:09;;;;;;;1.00;0.70;;;8.10;99.90;;;;;;5035851;28;20449;-77
2021/05/20 03:43:37;;;;;;;1.00;0.80;;;8.00;99.90;;;;;;5035423;28;20482;-77
2021/05/20 03:46:04;;;;;;;1.20;0.87;;;8.10;99.90;;;;;;5036401;28;21090;-78
2021/05/20 03:48:31;;;;;;;0.70;0.70;;;8.00;99.90;;;;;;5039262;28;20509;-79
2021/05/20 03:50:58;;;;;;;0.70;0.70;;;8.00;99.90;;;;;;5039448;28;20451;-78
2021/05/20 03:53:29;;;;;;;0.70;0.70;;;8.00;99.90;;;;;;5036833;28;20458;-78
2021/05/20 03:55:56;;;;;;;0.90;0.70;;;8.10;99.90;;;;;;5036107;28;20504;-78
2021/05/20 03:58:22;;;;;;;1.00;0.90;;;8.00;99.90;;;;;;5035499;28;20453;-78
2021/05/20 04:00:48;;;;;;;0.77;0.77;;;8.00;99.90;;;;;;5035110;28;20532;-78
2021/05/20 04:03:22;;;;;;;1.53;0.80;;;8.00;99.90;;;;;;5035326;28;20453;-78
2021/05/20 04:05:51;;;;;;;0.80;0.80;;;7.90;99.90;;;;;;5035398;28;20470;-78
2021/05/20 04:08:17;;;;;;;2.00;0.70;;;8.00;99.90;;;;;;5034970;28;20453;-77
2021/05/20 04:10:43;;;;;;;5.20;1.10;;;8.00;99.90;;;;;;5035228;28;20475;-78
2021/05/20 04:13:10;;;;;;;1.23;0.80;;;8.00;99.90;;;;;;5034995;28;20462;-78
2021/05/20 04:15:36;;;;;;;0.80;0.70;;;8.10;99.90;;;;;;5035161;28;20818;-78
2021/05/20 04:18:03;;;;;;;1.57;0.70;;;8.10;99.90;;;;;;5035135;28;20508;-78
2021/05/20 04:20:29;;;;;;;1.43;0.83;;;8.10;99.90;;;;;;5035034;28;20466;-78
2021/05/20 04:22:55;;;;;;;0.83;0.80;;;8.20;99.90;;;;;;5035011;28;20458;-78
2021/05/20 04:25:22;;;;;;;0.70;0.70;;;8.20;99.90;;;;;;5034944;28;20482;-78
2021/05/20 04:27:48;;;;;;;1.17;0.70;;;8.20;99.90;;;;;;5034610;28;21023;-78
2021/05/20 04:30:16;;;;;;;0.70;0.70;;;8.20;99.90;;;;;;5034598;28;20459;-78
2021/05/20 04:32:43;;;;;;;1.53;0.80;;;8.20;99.90;;;;;;5034581;28;20826;-78
2021/05/20 04:35:09;;;;;;;0.90;0.80;;;8.20;99.90;;;;;;5034842;28;20508;-78
2021/05/20 04:37:36;;;;;;;1.27;0.70;;;8.20;99.90;;;;;;5034816;28;20863;-78
2021/05/20 04:40:02;;;;;;;0.70;0.70;;;8.30;99.90;;;;;;5034427;28;21061;-78
2021/05/20 04:42:28;;;;;;;0.70;0.70;;;8.30;99.90;;;;;;5034494;28;20516;-78
2021/05/20 04:44:55;;;;;;;1.03;0.60;;;8.40;99.90;;;;;;5034598;28;20477;-78
2021/05/20 04:47:22;;;;;;;0.73;0.70;;;8.50;99.90;;;;;;5034572;28;20585;-78
2021/05/20 04:49:48;;;;;;;1.00;0.70;;;8.60;99.90;;;;;;5034202;28;20542;-77
2021/05/20 04:52:14;;;;;;;0.53;0.53;;;8.80;99.90;;;;;;5034505;28;20505;-78
2021/05/20 04:54:40;;;;;;;0.70;0.70;;;8.90;99.90;;;;;;5034457;28;20454;-78
2021/05/20 04:57:07;;;;;;;0.60;0.60;;;9.00;99.90;;;;;;5034975;28;20937;-78
2021/05/20 04:59:33;;;;;;;0.80;0.70;;;9.00;99.90;;;;;;5034342;28;20536;-78
2021/05/20 05:01:59;;;;;;;1.93;0.77;;;9.00;99.90;;;;;;5034041;28;20451;-78
2021/05/20 05:04:26;;;;;;;0.77;0.60;;;9.00;99.90;;;;;;5034159;28;20451;-78
2021/05/20 05:06:52;;;;;;;0.70;0.70;;;9.00;99.90;;;;;;5034166;28;20489;-78
2021/05/20 05:09:18;;;;;;;0.60;0.60;;;9.00;99.90;;;;;;5033864;28;20978;-78
2021/05/20 05:11:45;;;;;;;0.80;0.80;;;9.00;99.90;;;;;;5034094;28;20504;-78
2021/05/20 05:14:11;;;;;;;0.73;0.70;;;9.00;99.90;;;;;;5033818;28;20438;-78
2021/05/20 05:16:37;;;;;;;0.80;0.70;;;9.00;99.90;;;;;;5034040;28;20443;-78
2021/05/20 05:19:03;;;;;;;1.30;0.70;;;9.10;99.90;;;;;;5033599;28;20846;-78
2021/05/20 05:21:30;;;;;;;0.70;0.70;;;9.10;99.90;;;;;;5033656;28;20953;-78
2021/05/20 05:23:56;;;;;;;0.60;0.60;;;9.20;99.90;;;;;;5033885;28;20442;-78
2021/05/20 05:26:23;;;;;;;0.67;0.60;;;9.40;99.90;;;;;;5033541;28;21047;-78
2021/05/20 05:28:49;;;;;;;0.63;0.63;;;9.50;99.90;;;;;;5033810;28;20505;-78
2021/05/20 05:31:19;;;;;;;1.03;0.90;;;9.70;99.90;;;;;;5033525;28;20950;-79
2021/05/20 05:33:45;;;;;;;0.70;0.70;;;9.80;99.90;;;;;;5034084;28;20533;-78
2021/05/20 05:36:12;;;;;;;0.60;0.60;;;9.90;99.90;;;;;;5033467;28;20443;-78
2021/05/20 05:38:39;;;;;;;0.70;0.60;;;10.00;99.90;;;;;;5033684;28;20451;-78
2021/05/20 05:41:05;;;;;;;0.70;0.70;;;10.00;99.90;;;;;;5033631;28;20459;-78
2021/05/20 05:43:31;;;;;;;0.60;0.60;;;10.10;99.90;;;;;;5033215;28;20485;-78
2021/05/20 05:45:58;;;;;;;1.17;0.60;;;10.10;99.90;;;;;;5033219;28;21009;-78
2021/05/20 05:48:24;;;;;;;0.63;0.57;;;10.20;99.90;;;;;;5033331;28;20431;-78
2021/05/20 05:50:52;;;;;;;0.60;0.50;;;10.40;99.90;;;;;;5033944;28;20459;-78
2021/05/20 05:53:19;;;;;;;0.57;0.50;;;10.50;99.90;;;;;;5033147;28;20954;-78
2021/05/20 05:55:46;;;;;;;0.57;0.57;;;10.80;99.90;;;;;;5033415;28;20454;-78
2021/05/20 05:58:12;;;;;;;1.07;0.50;;;11.10;99.90;;;;;;5033583;28;20500;-78
2021/05/20 06:00:39;;;;;;;0.53;0.53;;;11.40;99.90;;;;;;5032893;28;20547;-78
2021/05/20 06:03:05;;;;;;;0.60;0.60;;;11.60;99.90;;;;;;5033125;28;20945;-78
2021/05/20 06:05:32;;;;;;;0.60;0.60;;;11.60;99.90;;;;;;5032997;28;21001;-79
2021/05/20 06:07:58;;;;;;;0.60;0.60;;;11.50;99.90;;;;;;5033121;28;20434;-78
2021/05/20 06:10:24;;;;;;;1.23;0.60;;;11.40;99.90;;;;;;5033154;28;20482;-78
2021/05/20 06:12:51;;;;;;;0.60;0.60;;;11.30;99.90;;;;;;5033304;28;20450;-78
2021/05/20 06:15:18;;;;;;;0.50;0.50;;;11.20;99.90;;;;;;5033213;28;20443;-78
2021/05/20 06:17:44;;;;;;;0.93;0.60;;;11.20;99.90;;;;;;5033211;28;20474;-78
2021/05/20 06:20:10;;;;;;;0.60;0.60;;;11.30;99.90;;;;;;5033169;28;20463;-78
2021/05/20 06:22:37;;;;;;;0.60;0.60;;;11.40;99.90;;;;;;5032933;28;20950;-78
2021/05/20 06:25:04;;;;;;;0.80;0.80;;;11.40;99.90;;;;;;5032858;28;20945;-79
2021/05/20 06:27:31;;;;;;;0.60;0.60;;;11.50;99.90;;;;;;5033218;28;20454;-79
2021/05/20 06:29:58;;;;;;;2.30;0.60;;;11.70;99.90;;;;;;5033080;28;20462;-79
2021/05/20 06:32:25;;;;;;;0.80;0.60;;;11.80;99.90;;;;;;5032793;28;20443;-79
2021/05/20 06:34:51;;;;;;;0.70;0.70;;;11.90;99.90;;;;;;5033034;28;20450;-78
2021/05/20 06:37:17;;;;;;;0.60;0.60;;;12.00;99.90;;;;;;5032910;28;20946;-78
2021/05/20 06:39:44;;;;;;;2.47;0.70;;;12.20;99.90;;;;;;5033025;28;20530;-78
2021/05/20 06:42:11;;;;;;;0.60;0.60;;;12.50;99.90;;;;;;5033025;28;20458;-78
2021/05/20 06:44:37;;;;;;;0.60;0.60;;;12.70;99.90;;;;;;5032591;28;20977;-79
2021/05/20 06:47:05;;;;;;;0.60;0.60;;;12.70;99.90;;;;;;5032923;28;20482;-79
2021/05/20 06:49:31;;;;;;;0.60;0.60;;;12.60;99.90;;;;;;5032855;28;20474;-79
2021/05/20 06:51:58;;;;;;;0.80;0.70;;;12.50;99.90;;;;;;5032933;28;20454;-78
2021/05/20 06:54:25;;;;;;;2.00;0.60;;;12.40;99.90;;;;;;5032645;28;20435;-79
2021/05/20 06:56:54;;;;;;;0.60;0.60;;;12.30;99.90;;;;;;5032617;28;21000;-78
2021/05/20 07:02:05;;;;;;;0.70;0.70;;;12.20;99.90;;;;;;5032970;28;20402;-79
2021/05/20 07:04:31;;;;;;;0.70;0.70;;;12.20;99.90;;;;;;5032558;28;20450;-79
2021/05/20 07:07:01;;;;;;;1.27;0.93;;;12.80;99.90;;;;;;5032753;28;20482;-78
2021/05/20 07:09:28;;;;;;;1.03;0.80;;;14.00;99.90;;;;;;5032695;28;20843;-78
2021/05/20 07:11:55;;;;;;;0.73;0.60;;;16.30;99.90;;;;;;5033717;28;20508;-79
2021/05/20 07:14:21;;;;;;;1.00;0.63;;;18.50;99.90;;;;;;5036754;28;20949;-79
2021/05/20 07:16:47;;;;;;;0.70;0.70;;;19.00;99.90;;;;;;5036199;28;20449;-79
2021/05/20 07:19:14;;;;;;;2.40;0.70;;;18.60;97.70;;;;;;5036275;28;20474;-79
2021/05/20 07:21:41;;;;;;;0.60;0.60;;;17.80;96.90;;;;;;5035977;28;20443;-79
2021/05/20 07:24:07;;;;;;;1.30;0.80;;;17.00;96.00;;;;;;5036536;28;20487;-77
2021/05/20 07:26:33;;;;;;;1.00;0.50;;;16.10;98.10;;;;;;5036090;28;20482;-77
2021/05/20 07:29:01;;;;;;;0.70;0.70;;;15.20;99.90;;;;;;5036039;28;20482;-77
2021/05/20 07:31:28;;;;;;;0.60;0.60;;;14.60;99.90;;;;;;5036054;28;20449;-77
2021/05/20 07:33:54;;;;;;;0.50;0.50;;;14.00;99.90;;;;;;5036085;28;20553;-77
2021/05/20 07:36:22;;;;;;;0.70;0.60;;;13.70;99.90;;;;;;5035707;28;20423;-77
2021/05/20 07:38:48;;;;;;;0.50;0.50;;;13.50;99.90;;;;;;5035870;28;20467;-77
2021/05/20 07:41:15;;;;;;;1.43;0.60;;;13.30;99.90;;;;;;5035850;28;20493;-77
2021/05/20 07:43:41;;;;;;;0.60;0.60;;;13.20;99.90;;;;;;5035565;28;20486;-77
2021/05/20 07:46:08;;;;;;;0.63;0.63;;;13.30;99.90;;;;;;5035732;28;20509;-77
2021/05/20 07:48:34;;;;;;;0.60;0.60;;;13.40;99.90;;;;;;5035359;28;20883;-77
2021/05/20 07:51:00;;;;;;;0.50;0.50;;;13.40;99.90;;;;;;5035786;28;20439;-77
2021/05/20 07:53:27;;;;;;;0.50;0.50;;;13.40;99.90;;;;;;5035629;28;20430;-77
2021/05/20 07:55:54;;;;;;;0.60;0.60;;;13.30;99.90;;;;;;5035644;28;20431;-77
2021/05/20 07:58:20;;;;;;;3.53;0.60;;;13.30;99.90;;;;;;5035224;28;20446;-77
2021/05/20 08:00:46;;;;;;;0.90;0.50;;;13.80;99.90;;;;;;5035590;28;20478;-76
2021/05/20 08:03:20;;;;;;;0.53;0.53;;;15.50;99.90;;;;;;5035480;28;20435;-76
2021/05/20 08:05:53;;;;;;;0.60;0.60;;;16.60;99.90;;;;;;5035372;28;20467;-76
2021/05/20 08:08:23;;;;;;;1.37;1.20;;;17.40;99.90;;;;;;5035334;28;20442;-76
2021/05/20 08:10:53;;;;;;;0.70;0.70;;;17.60;99.50;;;;;;5034979;28;21011;-78
2021/05/20 08:13:20;;;;;;;0.83;0.50;;;17.70;98.70;;;;;;5035005;28;20442;-75
2021/05/20 08:15:46;;;;;;;1.13;0.60;;;18.10;96.20;;;;;;5035813;28;20431;-75
2021/05/20 08:18:12;;;;;;;0.50;0.47;;;18.20;96.10;;;;;;5035230;28;20438;-76
2021/05/20 08:20:38;;;;;;;0.67;0.57;;;18.10;94.90;;;;;;5035047;28;20532;-75
2021/05/20 08:23:05;;;;;;;0.50;0.50;;;17.70;94.40;;;;;;5034783;28;20453;-76
2021/05/20 08:25:31;;;;;;;0.60;0.50;;;17.40;94.90;;;;;;5035032;28;20467;-76
2021/05/20 08:27:58;;;;;;;0.50;0.50;;;17.20;95.60;;;;;;5035034;28;20435;-75
2021/05/20 08:30:24;;;;;;;0.90;0.50;;;17.10;95.50;;;;;;5034931;28;20470;-75
2021/05/20 08:32:51;;;;;;;0.50;0.40;;;17.40;95.20;;;;;;5034970;28;20438;-75
2021/05/20 08:35:17;;;;;;;0.50;0.50;;;17.90;93.80;;;;;;5034897;28;20431;-75
2021/05/20 08:37:44;;;;;;;6.00;0.60;;;18.00;92.60;;;;;;5034553;28;20431;-75
2021/05/20 08:40:13;;;;;;;0.57;0.57;;;18.10;92.60;;;;;;5034403;28;20989;-75
2021/05/20 08:42:39;;;;;;;0.70;0.50;;;18.00;90.00;;;;;;5034519;28;20467;-75
2021/05/20 08:45:15;;;;;;;0.60;0.40;;;18.50;91.10;;;;;;5034704;28;20438;-75
2021/05/20 08:47:42;;;;;;;0.87;0.57;;;19.70;90.10;;;;;;5034366;28;20975;-75
2021/05/20 08:50:09;;;;;;;1.93;0.40;;;21.10;81.40;;;;;;5034593;28;20481;-75
2021/05/20 08:52:37;;;;;;;0.50;0.50;;;22.30;77.50;;;;;;5034542;28;20261;-76
2021/05/20 08:55:05;;;;;;;1.30;0.60;;;22.90;70.60;;;;;;5034533;28;20187;-75
2021/05/20 08:57:31;;;;;;;0.60;0.60;;;23.10;68.60;;;;;;5034513;28;20179;-76
2021/05/20 08:59:57;;;;;;;0.50;0.50;;;23.20;68.10;;;;;;5033964;28;20706;-76
2021/05/20 09:02:27;;;;;;;1.00;0.70;;;22.90;67.90;;;;;;5034515;28;20191;-76
2021/05/20 09:05:03;;;;;;;3.58;0.50;;;22.30;68.80;;;;;;5034347;28;20195;-76
2021/05/20 09:07:32;;;;;;;1.25;0.55;;;21.80;66.20;;;;;;5034250;28;20187;-76
2021/05/20 09:10:16;;;;;;;0.60;0.50;;;21.10;67.70;;;;;;5033883;28;20631;-76
2021/05/20 09:12:44;;;;;;;0.50;0.50;;;20.50;70.30;;;;;;5034290;28;20191;-76
2021/05/20 09:15:16;;;;;;;0.60;0.50;;;19.80;71.50;;;;;;5034200;28;20184;-76
2021/05/20 09:17:44;;;;;;;0.90;0.50;;;19.40;72.70;;;;;;5034146;28;20430;-76
2021/05/20 09:20:11;;;;;;;0.60;0.60;;;19.10;74.00;;;;;;5033735;28;20556;-74
2021/05/20 09:22:38;;;;;;;0.60;0.50;;;18.90;73.50;;;;;;5034028;28;20443;-75
2021/05/20 09:25:06;;;;;;;1.83;0.60;;;18.70;72.90;;;;;;5033853;28;20440;-77
2021/05/20 09:27:34;;;;;;;0.97;0.53;;;18.60;73.70;;;;;;5033962;28;20505;-78
2021/05/20 09:30:15;;;;;;;0.50;0.50;;;18.80;73.20;;;;;;5033562;28;20466;-78
2021/05/20 09:32:46;;;;;;;0.60;0.60;;;19.00;73.10;;;;;;5033908;28;20445;-78
2021/05/20 09:35:12;;;;;;;0.60;0.60;;;18.80;73.50;;;;;;5033180;28;20435;-78
2021/05/20 09:37:47;;;;;;;0.50;0.50;;;18.40;74.80;;;;;;5033847;28;20431;-78
2021/05/20 09:40:14;;;;;;;0.50;0.50;;;17.80;74.80;;;;;;5033770;28;20474;-78
2021/05/20 09:42:41;;;;;;;4.17;0.50;;;17.30;76.10;;;;;;5033554;28;20467;-78
2021/05/20 09:45:09;;;;;;;0.50;0.50;;;17.00;78.60;;;;;;5033358;28;20442;-78
2021/05/20 09:47:35;;;;;;;0.70;0.57;;;16.70;78.60;;;;;;5033408;28;20906;-77
2021/05/20 09:50:05;;;;;;;0.50;0.50;;;16.30;77.40;;;;;;5033360;28;20459;-78
2021/05/20 09:52:32;;;;;;;0.80;0.50;;;16.10;80.60;;;;;;5033660;28;20814;-78
2021/05/20 09:55:00;;;;;;;0.40;0.40;;;15.80;79.70;;;;;;5033561;28;20427;-77
2021/05/20 09:57:28;;;;;;;0.40;0.40;;;15.60;80.90;;;;;;5033550;28;20435;-77
2021/05/20 10:00:03;;;;;;;1.13;0.50;;;15.50;80.30;;;;;;5033415;28;20565;-77
2021/05/20 10:02:30;;;;;;;0.80;0.50;;;15.30;81.60;;;;;;5033455;28;20496;-77
2021/05/20 10:04:56;;;;;;;2.17;0.50;;;15.30;83.90;;;;;;5033424;28;20462;-77
2021/05/20 10:07:31;;;;;;;1.03;0.50;;;15.20;85.40;;;;;;5033335;28;20474;-77
2021/05/20 10:09:59;;;;;;;0.57;0.57;;;15.10;87.70;;;;;;5033058;28;20573;-77
2021/05/20 10:12:26;;;;;;;0.60;0.60;;;15.10;90.30;;;;;;5033416;28;20443;-77
2021/05/20 10:14:53;;;;;;;0.70;0.70;;;14.90;90.80;;;;;;5033433;28;20431;-76
2021/05/20 10:17:20;;;;;;;2.30;0.50;;;14.70;91.50;;;;;;5033345;28;20434;-77
2021/05/20 10:19:47;;;;;;;1.20;0.70;;;14.60;93.70;;;;;;5032915;28;21062;-77
2021/05/20 10:22:14;;;;;;;0.60;0.60;;;14.60;93.30;;;;;;5033324;28;20461;-77
2021/05/20 10:24:42;;;;;;;0.60;0.60;;;14.70;94.30;;;;;;5033533;28;20427;-77
2021/05/20 10:27:10;;;;;;;1.10;0.50;;;15.30;94.10;;;;;;5033173;28;20470;-77
2021/05/20 10:29:37;;;;;;;0.67;0.60;;;16.30;91.60;;;;;;5033164;28;20470;-78
2021/05/20 10:32:05;;;;;;;0.47;0.47;;;17.40;90.90;;;;;;5032874;28;20801;-77
2021/05/20 10:34:32;;;;;;;0.60;0.60;;;18.60;80.70;;;;;;5032912;28;20441;-77
2021/05/20 10:36:59;;;;;;;1.77;0.50;;;19.40;74.50;;;;;;5033123;28;20492;-78
2021/05/20 10:39:26;;;;;;;1.00;0.60;;;19.80;75.50;;;;;;5033248;28;20569;-77
2021/05/20 10:41:53;;;;;;;3.23;0.50;;;19.40;74.40;;;;;;5033286;28;20483;-77
2021/05/20 10:44:21;;;;;;;0.50;0.50;;;18.80;73.60;;;;;;5032568;28;20973;-77
2021/05/20 10:47:01;;;;;;;0.70;0.43;;;18.20;75.30;;;;;;5035587;28;20565;-77
2021/05/20 10:50:01;;;;;;;0.70;0.60;;;17.50;76.50;;;;;;5036513;28;21000;-77
2021/05/20 10:52:54;;;;;;;1.30;1.20;;;17.00;78.30;;;;;;5033883;28;20478;-78
2021/05/20 10:55:36;;;;;;;0.50;0.50;;;16.50;82.00;;;;;;5012300;28;20822;-78
2021/05/20 10:58:03;;;;;;;0.50;0.50;;;16.20;84.00;;;;;;5036952;28;20445;-78
2021/05/20 11:00:38;;;;;;;0.70;0.60;;;15.90;88.60;;;;;;5036647;28;20466;-78
2021/05/20 11:03:05;;;;;;;1.43;1.37;;;15.70;90.50;;;;;;5036536;28;20815;-77
2021/05/20 11:05:53;;;;;;;0.70;0.70;;;15.60;94.80;;;;;;5036218;28;20438;-77
2021/05/20 11:08:52;;;;;;;0.63;0.63;;;15.40;98.10;;;;;;5036566;28;20464;-77
2021/05/20 11:11:58;;;;;;;0.60;0.60;;;15.30;99.90;;;;;;4994751;28;20484;-78
2021/05/20 11:14:48;;;;;;;0.97;0.70;;;15.30;99.90;;;;;;5036452;28;20491;-77
2021/05/20 11:17:35;;;;;;;0.60;0.57;;;15.50;99.90;;;;;;5036107;28;20941;-77
2021/05/20 11:20:42;;;;;;;0.60;0.60;;;15.60;99.90;;;;;;5036017;28;20454;-77
2021/05/20 11:23:32;;;;;;;0.60;0.60;;;15.80;99.90;;;;;;5036249;28;20439;-77
2021/05/20 11:26:17;;;;;;;1.23;0.60;;;16.10;98.60;;;;;;5036112;28;20470;-77
2021/05/20 11:29:05;;;;;;;1.07;0.57;;;16.50;95.50;;;;;;5035777;28;20906;-78
2021/05/20 11:31:33;;;;;;;1.17;0.57;;;16.70;95.50;;;;;;5036570;28;20489;-78
2021/05/20 11:34:11;;;;;;;0.60;0.60;;;16.80;93.30;;;;;;5036069;28;20441;-78
2021/05/20 11:36:42;;;;;;;0.50;0.50;;;16.70;91.80;;;;;;5035980;28;20434;-78
2021/05/20 11:39:12;;;;;;;0.50;0.50;;;16.50;92.80;;;;;;5035671;28;20451;-78
2021/05/20 11:41:42;;;;;;;0.63;0.53;;;16.40;90.20;;;;;;5035916;28;20448;-78
2021/05/20 11:44:11;;;;;;;0.40;0.40;;;16.10;92.70;;;;;;5035514;28;20910;-78
2021/05/20 11:46:44;;;;;;;0.50;0.50;;;16.10;93.10;;;;;;5035858;28;20483;-78
2021/05/20 11:49:19;;;;;;;0.40;0.40;;;16.20;92.30;;;;;;5035744;28;20990;-81
2021/05/20 11:52:07;;;;;;;0.43;0.43;;;16.40;92.90;;;;;;5035807;28;20457;-79
2021/05/20 11:54:34;;;;;;;0.40;0.40;;;16.60;90.30;;;;;;5035698;28;20493;-78
2021/05/20 11:57:02;;;;;;;0.60;0.40;;;16.70;87.70;;;;;;5035396;28;20418;-78
2021/05/20 11:59:48;;;;;;;0.60;0.40;;;16.70;89.30;;;;;;5035280;28;20520;-78
2021/05/20 12:02:19;;;;;;;0.40;0.40;;;16.50;89.80;;;;;;5035254;28;20879;-79
2021/05/20 12:04:46;;;;;;;0.40;0.40;;;16.40;89.90;;;;;;5035241;28;20435;-79
2021/05/20 12:07:20;;;;;;;0.60;0.60;;;16.20;88.60;;;;;;5035403;28;20471;-78
2021/05/20 12:09:47;;;;;;;0.40;0.40;;;16.10;87.90;;;;;;5035335;28;20470;-79
2021/05/20 12:12:16;;;;;;;0.70;0.50;;;15.80;89.10;;;;;;5035761;28;20557;-79
2021/05/20 12:14:43;;;;;;;0.47;0.47;;;15.60;91.10;;;;;;5035376;28;20441;-79
2021/05/20 12:17:12;;;;;;;0.50;0.50;;;15.50;94.80;;;;;;5035285;28;20437;-78
2021/05/20 12:19:47;;;;;;;0.50;0.50;;;15.30;95.50;;;;;;5035223;28;20477;-79
2021/05/20 12:22:17;;;;;;;0.70;0.70;;;15.10;96.40;;;;;;5035161;28;20445;-78
2021/05/20 12:24:45;;;;;;;0.60;0.40;;;15.10;98.60;;;;;;5035154;28;20446;-79
2021/05/20 12:27:14;;;;;;;0.40;0.40;;;15.10;99.30;;;;;;5035022;28;20502;-79
2021/05/20 12:29:41;;;;;;;0.40;0.40;;;15.10;97.50;;;;;;5035045;28;20475;-79
2021/05/20 12:32:23;;;;;;;0.50;0.40;;;15.20;98.20;;;;;;5034725;28;20446;-79
2021/05/20 12:35:14;;;;;;;0.50;0.50;;;15.40;97.20;;;;;;5034894;28;20434;-79
2021/05/20 12:37:43;;;;;;;0.60;0.60;;;15.40;98.00;;;;;;5034600;28;20439;-79
2021/05/20 12:40:12;;;;;;;0.60;0.60;;;15.30;93.60;;;;;;5035326;28;20491;-80
2021/05/20 12:42:38;;;;;;;1.50;0.60;;;15.10;94.30;;;;;;5034693;28;20462;-78
2021/05/20 12:45:06;;;;;;;0.60;0.60;;;14.90;94.80;;;;;;5034727;28;20439;-78
2021/05/20 12:47:44;;;;;;;0.50;0.50;;;14.90;95.90;;;;;;5034646;28;20470;-78
2021/05/20 12:50:12;;;;;;;0.60;0.60;;;14.90;97.30;;;;;;5034620;28;20485;-78
2021/05/20 12:52:51;;;;;;;0.60;0.60;;;15.10;97.20;;;;;;5034581;28;20430;-77
2021/05/20 12:55:18;;;;;;;1.07;0.50;;;15.30;95.90;;;;;;5034528;28;20431;-77
2021/05/20 12:57:54;;;;;;;1.03;0.57;;;15.40;96.40;;;;;;5034505;28;20474;-77
2021/05/20 13:00:20;;;;;;;1.90;0.50;;;15.50;94.30;;;;;;5034343;28;20466;-77